Time;durP1;ratioP1;P1;durP2;ratioP2;P2;SDS_P1;SDS_P2;PMS_P1;PMS_P2;Temp;Humidity;BMP_temperature;BMP_pressure;BME280_temperature;BME280_humidity;BME280_pressure;Samples;Min_cycle;Max_cycle;Signal;HPM_P1;HPM_P2
2022/03/17 00:01:46;;;;;;;0.30;0.30;;;;;;;13.93;57.92;101896.09;5050269;28;20124;-83
2022/03/17 00:04:12;;;;;;;0.00;0.00;;;;;;;13.91;58.14;101898.78;5050843;28;20055;-83
2022/03/17 00:06:38;;;;;;;4.65;1.88;;;;;;;13.90;58.30;101900.56;5046223;28;20036;-82
2022/03/17 00:09:06;;;;;;;0.47;0.47;;;;;;;13.86;58.25;101898.84;5043295;28;20481;-82
2022/03/17 00:11:34;;;;;;;0.45;0.45;;;;;;;13.86;58.52;101909.53;5066581;28;20024;-83
2022/03/17 00:14:01;;;;;;;0.77;0.77;;;;;;;13.92;58.16;101911.22;5066670;28;20017;-83
2022/03/17 00:16:28;;;;;;;0.13;0.13;;;;;;;13.89;58.70;101916.56;5063553;28;20610;-83
2022/03/17 00:18:55;;;;;;;0.10;0.10;;;;;;;13.95;58.32;101920.94;5052035;28;20481;-83
2022/03/17 00:21:25;;;;;;;0.03;0.03;;;;;;;13.91;58.49;101918.31;5054209;28;20028;-83
2022/03/17 00:23:51;;;;;;;0.93;0.93;;;;;;;13.91;58.53;101915.63;5042242;28;20045;-83
2022/03/17 00:26:17;;;;;;;0.17;0.17;;;;;;;13.93;58.76;101917.41;5066121;28;20056;-83
2022/03/17 00:28:43;;;;;;;1.40;1.35;;;;;;;13.90;58.64;101911.22;5069229;28;20399;-82
2022/03/17 00:31:09;;;;;;;1.90;0.98;;;;;;;13.84;59.49;101908.66;5064499;28;20028;-83
2022/03/17 00:33:36;;;;;;;0.32;0.32;;;;;;;13.94;59.05;101897.84;5051841;28;20029;-83
2022/03/17 00:36:02;;;;;;;0.52;0.52;;;;;;;13.94;59.13;101903.19;5062914;28;20044;-83
2022/03/17 00:38:28;;;;;;;0.65;0.65;;;;;;;13.95;59.14;101904.94;5063658;28;20032;-82
2022/03/17 00:40:54;;;;;;;0.30;0.30;;;;;;;13.89;58.88;101914.81;5064200;28;20025;-83
2022/03/17 00:43:22;;;;;;;0.45;0.45;;;;;;;13.94;59.05;101913.84;5061802;28;20034;-83
2022/03/17 00:45:49;;;;;;;1.58;1.48;;;;;;;13.96;59.01;101917.38;5057126;28;20404;-82
2022/03/17 00:48:15;;;;;;;0.10;0.10;;;;;;;13.98;59.07;101915.53;5059700;28;20044;-83
2022/03/17 00:50:41;;;;;;;0.70;0.70;;;;;;;13.95;59.48;101910.28;5063567;28;20461;-81
2022/03/17 00:53:07;;;;;;;0.10;0.10;;;;;;;13.94;59.40;101908.50;5058747;28;20032;-83
2022/03/17 00:55:33;;;;;;;1.13;0.93;;;;;;;13.93;59.43;101909.41;5056215;28;20473;-83
2022/03/17 00:57:59;;;;;;;0.35;0.35;;;;;;;13.94;59.58;101908.50;5054545;28;20037;-83
2022/03/17 01:00:26;;;;;;;1.33;0.80;;;;;;;13.97;59.70;101909.34;5064394;28;20029;-83
2022/03/17 01:02:54;;;;;;;0.00;0.00;;;;;;;13.96;59.57;101915.56;5048558;28;20492;-83
2022/03/17 01:05:21;;;;;;;0.03;0.03;;;;;;;13.93;60.04;101918.28;5057669;28;20116;-83
2022/03/17 01:07:49;;;;;;;0.10;0.10;;;;;;;13.99;60.17;101917.31;5055077;28;20091;-83
2022/03/17 01:10:17;;;;;;;0.28;0.28;;;;;;;14.00;59.69;101921.72;5045805;28;20120;-83
2022/03/17 01:12:44;;;;;;;8.07;0.82;;;;;;;14.06;59.81;101924.28;5061561;28;20501;-83
2022/03/17 01:15:11;;;;;;;0.75;0.75;;;;;;;14.02;60.38;101923.47;5062771;28;20033;-83
2022/03/17 01:17:37;;;;;;;0.65;0.65;;;;;;;14.01;60.36;101931.50;5052053;28;20093;-82
2022/03/17 01:20:05;;;;;;;2.33;1.60;;;;;;;14.03;60.72;101919.00;5060208;28;20480;-83
2022/03/17 01:22:32;;;;;;;0.08;0.08;;;;;;;14.01;61.41;101926.16;5061359;28;20104;-83
2022/03/17 01:24:58;;;;;;;1.27;1.27;;;;;;;13.98;61.66;101924.44;5050526;28;20037;-83
2022/03/17 01:27:25;;;;;;;0.10;0.10;;;;;;;13.95;61.80;101920.94;5058510;28;20049;-83
2022/03/17 01:29:53;;;;;;;0.17;0.17;;;;;;;13.94;61.80;101927.16;5063499;28;20033;-83
2022/03/17 01:32:21;;;;;;;13.73;1.50;;;;;;;13.92;62.04;101929.84;5054609;28;20048;-83
2022/03/17 01:34:48;;;;;;;0.35;0.35;;;;;;;13.87;63.07;101934.38;5047807;28;20097;-83
2022/03/17 01:37:14;;;;;;;0.17;0.17;;;;;;;13.85;63.03;101926.41;5052284;28;20455;-82
2022/03/17 01:39:40;;;;;;;2.38;1.00;;;;;;;13.82;63.10;101937.13;5048829;28;20120;-82
2022/03/17 01:42:09;;;;;;;2.38;1.58;;;;;;;13.88;62.57;101942.34;5062270;28;20055;-83
2022/03/17 01:44:37;;;;;;;0.10;0.10;;;;;;;13.81;63.41;101946.00;5059470;28;20054;-82
2022/03/17 01:47:36;;;;;;;0.38;0.38;;;;;;;13.77;63.98;101944.31;5054732;28;20025;-83
2022/03/17 01:49:50;;;;;;;0.73;0.73;;;;;;;13.66;64.68;101952.44;5048155;28;20067;-83
2022/03/17 01:52:16;;;;;;;0.20;0.20;;;;;;;13.63;64.87;101946.28;5048058;28;20036;-81
2022/03/17 01:54:44;;;;;;;0.93;0.93;;;;;;;13.56;66.08;101965.03;5052321;28;20040;-82
2022/03/17 01:57:10;;;;;;;2.67;1.80;;;;;;;13.55;67.10;101960.59;5063818;28;20070;-80
2022/03/17 01:59:39;;;;;;;1.75;1.63;;;;;;;13.48;66.91;101972.22;5057899;28;20518;-81
2022/03/17 02:02:07;;;;;;;0.68;0.68;;;;;;;13.45;67.82;101972.28;5050540;28;20029;-82
2022/03/17 02:04:33;;;;;;;0.88;0.88;;;;;;;13.43;67.68;101971.41;5053222;28;20025;-81
2022/03/17 02:07:00;;;;;;;0.40;0.40;;;;;;;13.41;67.22;101976.75;5040065;28;20118;-82
2022/03/17 02:09:26;;;;;;;2.13;1.00;;;;;;;13.35;67.36;101989.25;5063704;28;20033;-81
2022/03/17 02:13:23;;;;;;;0.10;0.10;;;;;;;13.26;67.58;101992.91;5058741;28;20056;-81
2022/03/17 02:14:59;;;;;;;0.98;0.98;;;;;;;13.25;67.70;102007.13;5047469;28;20102;-81
2022/03/17 02:17:27;;;;;;;1.02;0.75;;;;;;;13.19;67.11;101994.75;5053588;28;20029;-82
2022/03/17 02:19:54;;;;;;;0.52;0.52;;;;;;;13.09;67.91;102022.38;5078090;28;20037;-81
2022/03/17 02:22:22;;;;;;;0.63;0.63;;;;;;;12.58;68.66;102045.06;5048775;28;20043;-82
2022/03/17 02:27:41;;;;;;;0.43;0.43;;;;;;;12.24;67.50;102076.38;5058370;28;20440;-82
2022/03/17 02:30:09;;;;;;;0.00;0.00;;;;;;;12.08;66.40;102059.66;5053476;28;20051;-82
2022/03/17 02:32:37;;;;;;;0.20;0.20;;;;;;;11.78;67.11;102081.03;5043629;28;20060;-83
2022/03/17 02:35:06;;;;;;;0.10;0.10;;;;;;;11.66;67.07;102089.03;5047544;28;20087;-81
2022/03/17 02:37:32;;;;;;;0.10;0.10;;;;;;;11.58;66.50;102088.22;5061170;28;20041;-82
2022/03/17 02:40:00;;;;;;;0.10;0.10;;;;;;;11.46;66.82;102086.47;5066556;28;20017;-82
2022/03/17 02:42:30;;;;;;;0.28;0.28;;;;;;;11.38;66.85;102093.59;5063965;22;20041;-80
2022/03/17 02:44:58;;;;;;;0.10;0.10;;;;;;;11.36;66.55;102122.78;5057310;28;20033;-80
2022/03/17 02:47:24;;;;;;;0.35;0.28;;;;;;;11.30;66.61;102097.16;5058312;28;20402;-79
2022/03/17 02:49:52;;;;;;;0.13;0.13;;;;;;;11.19;67.07;102108.66;5053513;28;20460;-80
2022/03/17 02:52:19;;;;;;;0.10;0.10;;;;;;;11.23;67.17;102119.28;5047333;28;20025;-79
2022/03/17 02:54:46;;;;;;;0.20;0.20;;;;;;;11.13;67.35;102115.75;5046646;28;20530;-78
2022/03/17 02:57:12;;;;;;;0.90;0.90;;;;;;;11.15;67.25;102129.00;5047980;28;20044;-80
2022/03/17 02:59:38;;;;;;;0.10;0.10;;;;;;;11.05;67.60;102127.28;5056106;28;20053;-78
2022/03/17 03:02:04;;;;;;;0.05;0.05;;;;;;;11.08;67.46;102127.25;5049514;28;20029;-78
2022/03/17 03:04:34;;;;;;;0.10;0.10;;;;;;;11.04;67.70;102130.81;5054019;28;20099;-78
2022/03/17 03:07:02;;;;;;;0.10;0.10;;;;;;;10.95;68.13;102143.22;5042256;28;20084;-77
2022/03/17 03:09:29;;;;;;;0.03;0.03;;;;;;;11.03;67.83;102152.91;5045588;28;20029;-78
2022/03/17 03:11:56;;;;;;;1.05;1.05;;;;;;;10.99;68.15;102166.19;5045814;28;20038;-78
2022/03/17 03:14:22;;;;;;;2.45;0.95;;;;;;;10.89;68.05;102175.03;5047295;28;20029;-75
2022/03/17 03:16:50;;;;;;;0.63;0.63;;;;;;;10.92;68.22;102185.63;5047376;28;20098;-77
2022/03/17 03:19:16;;;;;;;0.25;0.25;;;;;;;10.95;67.73;102185.63;5049929;28;20036;-77
2022/03/17 03:21:43;;;;;;;0.08;0.08;;;;;;;10.93;67.72;102187.38;5043724;28;20028;-77
2022/03/17 03:24:10;;;;;;;0.60;0.60;;;;;;;10.99;67.64;102192.69;5045754;28;20029;-77
2022/03/17 03:26:37;;;;;;;0.10;0.10;;;;;;;10.94;67.23;102205.06;5048421;28;20032;-77
2022/03/17 03:29:06;;;;;;;0.20;0.20;;;;;;;10.94;67.25;102215.69;5044876;28;20025;-78
2022/03/17 03:31:34;;;;;;;0.10;0.10;;;;;;;10.77;67.79;102223.59;5046610;28;20411;-76
2022/03/17 03:34:01;;;;;;;0.10;0.10;;;;;;;10.72;67.01;102221.84;5043104;28;20029;-75
2022/03/17 03:37:23;;;;;;;1.73;1.27;;;;;;;10.75;67.24;102240.41;5047887;28;20056;-77
2022/03/17 03:39:13;;;;;;;0.10;0.10;;;;;;;10.68;67.30;102244.81;5053934;28;20033;-78
2022/03/17 03:41:39;;;;;;;1.85;1.75;;;;;;;10.55;67.22;102275.69;5056027;28;20039;-78
2022/03/17 03:44:05;;;;;;;0.10;0.10;;;;;;;10.64;66.84;102259.81;5048376;28;20039;-77
2022/03/17 03:46:31;;;;;;;0.30;0.30;;;;;;;10.54;66.96;102270.38;5054113;28;20485;-77
2022/03/17 03:48:58;;;;;;;2.35;0.73;;;;;;;10.59;66.94;102260.69;5061937;28;20033;-77
2022/03/17 03:51:24;;;;;;;0.10;0.10;;;;;;;10.67;66.39;102264.25;5059773;28;20033;-77
2022/03/17 03:54:21;;;;;;;0.17;0.17;;;;;;;10.64;66.45;102286.34;5059023;28;20075;-76
2022/03/17 03:56:36;;;;;;;0.13;0.13;;;;;;;10.60;66.01;102291.59;5048312;28;20047;-78
2022/03/17 03:59:04;;;;;;;0.17;0.17;;;;;;;10.58;65.60;102304.88;5062428;28;20060;-78
2022/03/17 04:01:32;;;;;;;0.10;0.10;;;;;;;10.45;65.48;102301.25;5050049;28;20038;-77
2022/03/17 04:04:01;;;;;;;0.00;0.00;;;;;;;10.45;65.19;102300.41;5049183;28;20029;-77
2022/03/17 04:06:27;;;;;;;0.10;0.10;;;;;;;10.60;64.60;102311.03;5064845;28;20670;-76
2022/03/17 04:08:54;;;;;;;0.10;0.10;;;;;;;10.42;64.73;102321.56;5062304;28;20071;-79
2022/03/17 04:11:20;;;;;;;0.10;0.10;;;;;;;10.45;64.04;102330.41;5060127;28;20041;-77
2022/03/17 04:13:46;;;;;;;0.10;0.10;;;;;;;10.47;64.18;102333.97;5055431;28;20032;-78
2022/03/17 04:16:12;;;;;;;0.10;0.10;;;;;;;10.40;64.23;102334.81;5061673;28;20032;-78
2022/03/17 04:18:38;;;;;;;0.10;0.10;;;;;;;10.50;63.59;102346.34;5061797;28;20028;-78
2022/03/17 04:21:04;;;;;;;0.10;0.10;;;;;;;10.43;63.37;102344.53;5050189;28;20152;-77
2022/03/17 04:23:30;;;;;;;0.10;0.10;;;;;;;10.42;63.50;102348.06;5057924;28;20036;-77
2022/03/17 04:25:56;;;;;;;0.10;0.10;;;;;;;10.40;63.42;102345.41;5059167;28;20033;-78
2022/03/17 04:28:22;;;;;;;0.25;0.25;;;;;;;10.34;63.62;102361.25;5061129;28;20028;-78
2022/03/17 04:30:48;;;;;;;0.20;0.20;;;;;;;10.43;63.74;102371.03;5054535;28;20020;-78
2022/03/17 04:33:15;;;;;;;0.10;0.10;;;;;;;10.42;63.46;102379.84;5044716;28;20083;-77
2022/03/17 04:35:41;;;;;;;0.10;0.10;;;;;;;10.32;63.49;102382.44;5052106;28;20037;-77
2022/03/17 04:38:07;;;;;;;0.10;0.10;;;;;;;10.33;62.94;102383.31;5051248;28;20505;-78
2022/03/17 04:40:33;;;;;;;0.10;0.10;;;;;;;10.44;62.95;102386.06;5054056;28;20048;-78
2022/03/17 04:42:59;;;;;;;0.10;0.10;;;;;;;10.40;62.91;102402.84;5055638;28;20033;-79
2022/03/17 04:45:25;;;;;;;0.10;0.10;;;;;;;10.29;63.05;102406.28;5055605;28;20032;-79
2022/03/17 04:47:52;;;;;;;0.10;0.10;;;;;;;10.20;63.46;102422.09;5055565;28;20024;-79
2022/03/17 04:50:18;;;;;;;0.15;0.15;;;;;;;10.29;63.44;102429.22;5057614;28;20470;-79
2022/03/17 04:55:30;;;;;;;0.05;0.05;;;;;;;10.10;64.03;102442.31;5060532;28;20107;-79
2022/03/17 04:57:57;;;;;;;0.10;0.10;;;;;;;10.19;63.59;102447.72;5054422;28;20044;-79
2022/03/17 05:00:23;;;;;;;0.00;0.00;;;;;;;10.26;63.57;102453.91;5047942;28;20439;-77
2022/03/17 05:02:49;;;;;;;0.10;0.10;;;;;;;10.16;63.80;102458.25;5042951;28;20036;-79
2022/03/17 05:05:15;;;;;;;0.00;0.00;;;;;;;9.96;64.19;102471.34;5049231;28;20033;-79
2022/03/17 05:07:41;;;;;;;0.10;0.10;;;;;;;10.06;63.68;102487.34;5052125;28;20096;-79
2022/03/17 05:10:09;;;;;;;0.10;0.10;;;;;;;10.09;63.67;102490.00;5047022;28;20025;-80
2022/03/17 05:12:35;;;;;;;0.10;0.10;;;;;;;10.08;63.39;102496.16;5047615;28;20057;-79
2022/03/17 05:15:01;;;;;;;0.10;0.10;;;;;;;10.10;63.23;102499.72;5053466;28;20036;-79
2022/03/17 05:17:27;;;;;;;0.10;0.10;;;;;;;10.23;62.64;102501.59;5041655;28;20029;-80
2022/03/17 05:19:53;;;;;;;0.10;0.10;;;;;;;10.21;62.66;102529.81;5051405;28;20041;-79
2022/03/17 05:22:19;;;;;;;0.10;0.10;;;;;;;10.07;62.67;102532.34;5041437;28;20493;-79
2022/03/17 05:24:45;;;;;;;0.10;0.10;;;;;;;10.30;62.33;102529.00;5049106;28;20033;-79
2022/03/17 05:27:12;;;;;;;0.10;0.10;;;;;;;10.28;62.55;102542.25;5055954;28;20025;-79
2022/03/17 05:29:38;;;;;;;0.10;0.10;;;;;;;10.10;62.13;102542.09;5048276;28;20029;-79
2022/03/17 05:32:04;;;;;;;0.10;0.10;;;;;;;10.07;61.77;102548.25;5055223;28;20033;-79
2022/03/17 05:34:32;;;;;;;0.10;0.10;;;;;;;10.10;61.79;102563.28;5053238;28;20037;-79
2022/03/17 05:36:58;;;;;;;0.10;0.10;;;;;;;10.17;61.45;102559.81;5053367;28;20037;-79
2022/03/17 05:39:24;;;;;;;0.10;0.10;;;;;;;10.14;61.71;102580.97;5055076;28;20085;-79
2022/03/17 05:41:50;;;;;;;0.10;0.10;;;;;;;10.16;62.39;102571.28;5051843;28;20032;-79
2022/03/17 05:44:16;;;;;;;0.10;0.10;;;;;;;10.24;62.04;102572.22;5051029;28;20056;-79
2022/03/17 05:46:42;;;;;;;0.10;0.10;;;;;;;10.16;62.14;102589.81;5055136;28;20098;-80
2022/03/17 05:49:08;;;;;;;0.10;0.10;;;;;;;10.04;62.89;102617.06;5055565;28;20060;-79
2022/03/17 05:51:34;;;;;;;0.10;0.10;;;;;;;9.90;63.19;102603.66;5039178;28;20037;-79
2022/03/17 05:54:01;;;;;;;0.10;0.10;;;;;;;9.93;63.44;102614.31;5058303;28;20037;-79
2022/03/17 05:56:27;;;;;;;0.05;0.05;;;;;;;10.07;63.03;102616.19;5050001;28;20444;-80
2022/03/17 05:58:53;;;;;;;0.10;0.10;;;;;;;10.07;62.90;102618.84;5053287;28;20025;-77
2022/03/17 06:01:19;;;;;;;0.10;0.10;;;;;;;9.97;63.82;102631.09;5044840;28;20052;-79
2022/03/17 06:03:45;;;;;;;0.10;0.10;;;;;;;9.88;64.24;102635.44;5047466;28;20029;-79
2022/03/17 06:06:11;;;;;;;1.02;0.73;;;;;;;9.93;64.33;102639.88;5052929;28;20386;-79
2022/03/17 06:08:37;;;;;;;0.10;0.10;;;;;;;9.77;64.80;102641.47;5051158;28;20025;-79
2022/03/17 06:11:06;;;;;;;0.10;0.10;;;;;;;9.96;64.37;102647.88;5050091;28;20037;-78
2022/03/17 06:13:33;;;;;;;0.10;0.10;;;;;;;9.98;63.88;102654.97;5046914;28;20091;-78
2022/03/17 06:15:59;;;;;;;0.10;0.10;;;;;;;10.06;64.01;102664.78;5049169;28;20044;-79
2022/03/17 06:18:25;;;;;;;0.10;0.10;;;;;;;10.02;63.63;102670.00;5047408;28;20041;-78
2022/03/17 06:20:51;;;;;;;0.10;0.10;;;;;;;10.02;63.73;102671.78;5046837;28;20051;-79
2022/03/17 06:23:17;;;;;;;0.80;0.80;;;;;;;10.04;63.59;102670.94;5043651;28;20029;-79
2022/03/17 06:25:43;;;;;;;0.10;0.10;;;;;;;10.09;63.35;102691.28;5044101;28;20376;-79
2022/03/17 06:28:10;;;;;;;0.10;0.10;;;;;;;10.03;63.79;102685.03;5049908;28;20029;-79
2022/03/17 06:30:37;;;;;;;0.57;0.57;;;;;;;10.11;63.46;102694.84;5051126;28;20033;-80
2022/03/17 06:33:04;;;;;;;0.10;0.10;;;;;;;10.12;63.48;102700.16;5052700;28;20033;-79
2022/03/17 06:35:31;;;;;;;0.10;0.10;;;;;;;10.25;63.05;102709.13;5042841;28;20052;-78
2022/03/17 06:37:59;;;;;;;0.10;0.10;;;;;;;10.18;62.73;102707.25;5047462;28;20104;-79
2022/03/17 06:40:27;;;;;;;0.10;0.10;;;;;;;10.04;62.50;102718.59;5045343;28;20510;-80
2022/03/17 06:42:55;;;;;;;0.10;0.10;;;;;;;10.11;62.43;102722.19;5053886;28;20039;-78
2022/03/17 06:45:22;;;;;;;0.10;0.10;;;;;;;10.01;61.63;102726.50;5041486;28;20026;-78
2022/03/17 06:47:48;;;;;;;0.10;0.10;;;;;;;10.03;60.42;102735.34;5047084;28;20108;-79
2022/03/17 06:50:17;;;;;;;0.10;0.10;;;;;;;10.15;60.46;102736.38;5049547;28;20030;-79
2022/03/17 06:52:43;;;;;;;0.10;0.10;;;;;;;10.17;60.52;102747.88;5039872;28;20106;-77
2022/03/17 06:55:10;;;;;;;0.10;0.10;;;;;;;10.11;60.06;102743.41;5056560;28;20043;-79
2022/03/17 06:57:36;;;;;;;0.10;0.10;;;;;;;10.19;59.93;102754.06;5054276;28;20823;-79
2022/03/17 07:00:06;;;;;;;0.10;0.10;;;;;;;10.20;59.17;102759.41;5061603;28;20169;-79
2022/03/17 07:02:33;;;;;;;0.57;0.57;;;;;;;10.18;58.54;102768.19;5051704;28;20037;-79
2022/03/17 07:04:59;;;;;;;0.10;0.10;;;;;;;10.24;58.75;102770.03;5052721;28;20051;-79
2022/03/17 07:07:27;;;;;;;0.10;0.10;;;;;;;10.24;57.65;102778.84;5056164;28;20040;-78
2022/03/17 07:09:53;;;;;;;0.10;0.10;;;;;;;10.23;57.38;102787.69;5060941;28;20111;-78
2022/03/17 07:12:19;;;;;;;0.10;0.10;;;;;;;10.14;57.95;102782.28;5058194;28;20055;-78
2022/03/17 07:14:45;;;;;;;0.10;0.10;;;;;;;10.16;57.22;102786.72;5050975;28;20041;-77
2022/03/17 07:17:11;;;;;;;0.10;0.10;;;;;;;10.25;57.45;102780.66;5047901;28;20035;-78
2022/03/17 07:19:37;;;;;;;0.10;0.10;;;;;;;10.29;57.16;102798.38;5049115;28;20481;-78
2022/03/17 07:22:04;;;;;;;0.10;0.10;;;;;;;10.32;57.00;102798.41;5061243;28;20738;-78
2022/03/17 07:24:31;;;;;;;2.35;2.20;;;;;;;10.25;57.46;102812.44;5051860;28;20033;-75
2022/03/17 07:26:58;;;;;;;0.10;0.10;;;;;;;10.42;57.24;102812.69;5057840;28;20044;-75
2022/03/17 07:29:25;;;;;;;0.17;0.17;;;;;;;10.54;57.51;102819.88;5051801;28;20021;-77
2022/03/17 07:31:54;;;;;;;0.38;0.38;;;;;;;10.57;57.14;102827.91;5054874;28;20114;-78
2022/03/17 07:34:20;;;;;;;0.10;0.10;;;;;;;10.61;57.09;102824.41;5053093;28;20035;-77
2022/03/17 07:36:47;;;;;;;0.30;0.30;;;;;;;10.53;57.11;102836.69;5056699;28;20078;-80
2022/03/17 07:39:13;;;;;;;0.10;0.10;;;;;;;10.53;57.40;102839.34;5057592;28;20454;-79
2022/03/17 07:41:39;;;;;;;0.10;0.10;;;;;;;10.60;57.51;102845.59;5055627;28;20116;-79
2022/03/17 07:44:05;;;;;;;0.10;0.10;;;;;;;10.54;57.39;102857.00;5055599;28;20032;-79
2022/03/17 07:46:32;;;;;;;0.52;0.52;;;;;;;10.58;57.41;102863.22;5055533;28;20037;-79
2022/03/17 07:48:58;;;;;;;0.10;0.10;;;;;;;10.62;57.10;102855.34;5054517;28;20497;-78
2022/03/17 07:51:24;;;;;;;0.10;0.10;;;;;;;10.62;57.35;102860.63;5050323;28;20099;-79
2022/03/17 07:53:50;;;;;;;0.08;0.08;;;;;;;10.66;57.31;102862.44;5049827;28;20036;-79
2022/03/17 07:56:20;;;;;;;0.10;0.10;;;;;;;10.49;57.06;102869.31;5046027;28;20134;-77
2022/03/17 07:58:46;;;;;;;0.10;0.10;;;;;;;10.55;57.09;102868.50;5053444;28;20398;-79
2022/03/17 08:01:13;;;;;;;0.10;0.10;;;;;;;10.51;57.54;102886.13;5052396;28;20090;-79
2022/03/17 08:03:40;;;;;;;0.10;0.10;;;;;;;10.48;57.31;102888.72;5053327;28;20028;-77
2022/03/17 08:06:09;;;;;;;0.10;0.10;;;;;;;10.42;57.09;102899.25;5047810;28;20036;-79
2022/03/17 08:08:35;;;;;;;0.10;0.10;;;;;;;10.33;57.11;102900.88;5048436;28;20033;-76
2022/03/17 08:11:07;;;;;;;0.10;0.10;;;;;;;10.27;56.74;102907.81;5049554;28;20063;-77
2022/03/17 08:13:34;;;;;;;0.10;0.10;;;;;;;10.24;56.43;102913.97;5049511;28;20040;-78
2022/03/17 08:16:01;;;;;;;0.10;0.10;;;;;;;10.28;56.41;102921.13;5046445;28;20081;-78
2022/03/17 08:18:27;;;;;;;0.10;0.10;;;;;;;10.34;56.45;102925.59;5041577;28;20029;-77
2022/03/17 08:20:53;;;;;;;0.10;0.10;;;;;;;10.35;56.47;102925.66;5044930;28;20025;-78
2022/03/17 08:23:21;;;;;;;0.10;0.10;;;;;;;10.30;56.60;102937.91;5045353;28;20451;-79
2022/03/17 08:25:49;;;;;;;0.10;0.10;;;;;;;10.38;56.25;102945.13;5043300;28;20506;-79
2022/03/17 08:28:17;;;;;;;0.10;0.10;;;;;;;10.48;56.28;102945.28;5047952;28;20115;-80
2022/03/17 08:30:46;;;;;;;0.47;0.47;;;;;;;10.46;56.17;102964.69;5041176;28;20026;-76
2022/03/17 08:33:13;;;;;;;0.08;0.08;;;;;;;10.49;56.06;102970.03;5045441;28;20037;-79
2022/03/17 08:35:40;;;;;;;0.10;0.10;;;;;;;10.59;55.99;102989.59;5044359;28;20097;-78
2022/03/17 08:38:07;;;;;;;0.10;0.10;;;;;;;10.66;55.79;102970.28;5054567;28;20024;-79
2022/03/17 08:40:33;;;;;;;0.10;0.10;;;;;;;10.71;56.09;102967.69;5044211;28;20118;-80
2022/03/17 08:42:59;;;;;;;0.10;0.10;;;;;;;10.78;55.36;102982.78;5050501;28;20398;-79
2022/03/17 08:50:58;;;;;;;0.10;0.10;;;;;;;11.00;54.22;103003.44;5036332;28;20043;-84
2022/03/17 08:53:24;;;;;;;0.10;0.10;;;;;;;11.03;54.22;103014.94;5044113;28;20033;-85
2022/03/17 08:55:50;;;;;;;0.10;0.10;;;;;;;11.31;53.49;103003.81;5027950;28;20029;-83
2022/03/17 08:58:16;;;;;;;0.20;0.20;;;;;;;11.39;53.27;103025.13;5022685;28;20030;-81
2022/03/17 09:00:43;;;;;;;0.10;0.10;;;;;;;11.57;53.00;103013.81;5016008;28;20026;-83
2022/03/17 09:03:09;;;;;;;0.10;0.10;;;;;;;11.65;52.96;103019.19;5017983;28;20018;-83
2022/03/17 09:05:35;;;;;;;0.10;0.10;;;;;;;11.69;52.59;103030.75;5021969;28;20446;-84
2022/03/17 09:08:04;;;;;;;0.10;0.10;;;;;;;11.81;52.53;103023.81;5033219;28;20041;-83
2022/03/17 09:10:34;;;;;;;0.10;0.10;;;;;;;11.86;52.09;103028.28;5023203;28;20026;-83
2022/03/17 09:13:07;;;;;;;0.20;0.20;;;;;;;11.91;52.13;103035.44;5030310;28;20041;-83
2022/03/17 09:15:35;;;;;;;0.80;0.80;;;;;;;11.92;52.21;103046.94;5024016;28;20045;-83
2022/03/17 09:18:02;;;;;;;0.10;0.10;;;;;;;11.96;51.65;103047.00;5021281;28;20065;-84
2022/03/17 09:20:28;;;;;;;0.10;0.10;;;;;;;11.93;50.61;103046.94;5017385;28;20033;-83
2022/03/17 09:22:56;;;;;;;0.10;0.10;;;;;;;11.95;51.84;103052.25;5022631;28;20040;-84
2022/03/17 09:25:25;;;;;;;0.10;0.10;;;;;;;11.78;51.30;103045.03;5020067;28;20040;-84
2022/03/17 09:27:52;;;;;;;0.10;0.10;;;;;;;11.72;51.10;103046.72;5024968;28;20033;-83
2022/03/17 09:30:18;;;;;;;0.00;0.00;;;;;;;11.77;51.26;103047.66;5017650;28;20049;-84
2022/03/17 09:32:45;;;;;;;0.20;0.20;;;;;;;11.95;51.70;103058.47;5021472;28;20038;-84
2022/03/17 09:35:12;;;;;;;0.10;0.10;;;;;;;12.02;51.47;103064.75;5021727;28;20128;-85
2022/03/17 09:37:39;;;;;;;0.10;0.10;;;;;;;12.16;51.23;103062.22;5020438;28;20096;-84
2022/03/17 09:40:07;;;;;;;0.03;0.03;;;;;;;12.19;50.64;103067.59;5023431;28;20038;-83
2022/03/17 09:42:34;;;;;;;0.28;0.28;;;;;;;12.19;50.07;103072.91;5028153;28;20024;-83
2022/03/17 09:45:01;;;;;;;4.85;1.30;;;;;;;12.20;50.58;103079.09;5028522;28;20026;-82
2022/03/17 09:47:32;;;;;;;0.00;0.00;;;;;;;12.33;50.17;103080.13;5021380;28;20033;-82
2022/03/17 09:49:59;;;;;;;0.00;0.00;;;;;;;12.39;49.32;103090.81;5022155;28;20034;-82
2022/03/17 09:52:26;;;;;;;0.00;0.00;;;;;;;12.48;49.78;103097.97;5024150;28;20025;-83
2022/03/17 09:54:53;;;;;;;0.10;0.10;;;;;;;12.56;49.46;103096.25;5026413;28;20029;-82
2022/03/17 09:57:21;;;;;;;0.30;0.30;;;;;;;12.61;49.39;103098.06;5015764;28;20038;-82
2022/03/17 09:59:49;;;;;;;0.05;0.05;;;;;;;12.76;49.05;103097.28;5019291;28;20025;-82
2022/03/17 10:02:16;;;;;;;0.25;0.25;;;;;;;12.69;49.09;103106.09;5020907;28;20033;-83
2022/03/17 10:04:44;;;;;;;0.10;0.10;;;;;;;12.52;48.86;103119.25;5019829;28;20061;-82
2022/03/17 10:07:16;;;;;;;0.10;0.10;;;;;;;12.45;48.87;103126.28;5022052;28;20500;-82
2022/03/17 10:09:43;;;;;;;0.10;0.10;;;;;;;12.44;48.00;103128.94;5012373;28;20042;-82
2022/03/17 10:12:11;;;;;;;1.85;0.90;;;;;;;12.60;49.31;103129.97;5011723;28;20068;-82
2022/03/17 10:14:39;;;;;;;0.00;0.00;;;;;;;12.59;48.18;103139.72;5015468;28;20120;-83
2022/03/17 10:17:10;;;;;;;0.08;0.08;;;;;;;12.55;47.64;103140.56;5017320;28;20029;-81
2022/03/17 10:19:36;;;;;;;0.08;0.08;;;;;;;12.56;48.19;103146.75;5013972;28;20494;-85
2022/03/17 10:22:09;;;;;;;0.10;0.10;;;;;;;12.71;48.05;103151.31;5016203;28;20038;-83
2022/03/17 10:24:37;;;;;;;0.10;0.10;;;;;;;12.69;47.51;103153.97;5018236;28;20120;-83
2022/03/17 10:27:04;;;;;;;0.00;0.00;;;;;;;12.88;47.89;103148.81;5012906;28;20504;-83
2022/03/17 10:29:31;;;;;;;0.10;0.10;;;;;;;12.94;47.62;103163.03;5013629;28;20515;-82
2022/03/17 10:32:06;;;;;;;0.00;0.00;;;;;;;13.09;47.23;103186.19;5020667;28;20046;-83
2022/03/17 10:37:24;;;;;;;0.00;0.00;;;;;;;13.10;44.81;103179.13;5114921;27;1173418;-81
2022/03/17 10:39:52;;;;;;;0.10;0.10;;;;;;;13.11;45.46;103179.13;5133294;27;20028;-81
2022/03/17 10:42:22;;;;;;;0.10;0.10;;;;;;;13.09;45.76;103180.88;5129224;28;20035;-82
2022/03/17 10:44:51;;;;;;;0.10;0.10;;;;;;;13.08;45.97;103194.19;5126681;28;20055;-81
2022/03/17 10:47:29;;;;;;;0.00;0.00;;;;;;;13.28;46.47;103181.00;5130868;27;20031;-82
2022/03/17 10:50:06;;;;;;;0.00;0.00;;;;;;;13.33;46.04;103189.91;5125425;28;20031;-82
2022/03/17 10:52:56;;;;;;;1.45;0.60;;;;;;;13.52;46.62;103193.63;5125004;28;20114;-82
2022/03/17 10:55:26;;;;;;;0.20;0.20;;;;;;;13.45;45.16;103196.25;5133243;28;20099;-82
2022/03/17 10:57:54;;;;;;;0.00;0.00;;;;;;;13.34;45.11;103198.78;5123899;28;20035;-81
2022/03/17 11:00:23;;;;;;;0.15;0.15;;;;;;;13.22;45.08;103219.13;5131717;28;20038;-82
2022/03/17 11:02:53;;;;;;;0.05;0.05;;;;;;;13.03;45.99;103211.88;5139180;27;20032;-82
2022/03/17 11:05:20;;;;;;;0.00;0.00;;;;;;;12.93;46.60;103214.50;5142136;27;20020;-82
2022/03/17 11:07:46;;;;;;;0.00;0.00;;;;;;;12.86;47.03;103215.31;5148039;27;20031;-82
2022/03/17 11:10:15;;;;;;;0.10;0.10;;;;;;;12.95;46.50;103227.81;5148153;27;20059;-82
2022/03/17 11:12:43;;;;;;;0.10;0.10;;;;;;;12.89;46.86;103210.00;5146084;27;20019;-81
2022/03/17 11:15:10;;;;;;;0.10;0.10;;;;;;;12.77;44.71;103226.75;5143358;28;20051;-82
2022/03/17 11:17:47;;;;;;;0.08;0.08;;;;;;;12.88;45.37;103229.50;5148904;28;20043;-80
2022/03/17 11:20:22;;;;;;;0.08;0.08;;;;;;;12.82;45.52;103223.25;5146431;27;20024;-81
2022/03/17 11:23:20;;;;;;;0.10;0.10;;;;;;;12.98;46.18;103229.59;5147149;27;20018;-81
2022/03/17 11:25:55;;;;;;;0.22;0.22;;;;;;;13.18;45.94;103232.41;5140060;27;20034;-80
2022/03/17 11:28:40;;;;;;;0.10;0.10;;;;;;;13.28;45.03;103231.59;5136914;27;20023;-81
2022/03/17 11:31:08;;;;;;;0.10;0.10;;;;;;;13.20;44.50;103225.34;5133957;28;20020;-81
2022/03/17 11:33:43;;;;;;;0.00;0.00;;;;;;;13.32;43.75;103237.81;5143811;28;20035;-81
2022/03/17 11:39:02;;;;;;;0.20;0.20;;;;;;;13.24;44.09;103232.44;5084318;28;20375;-81
2022/03/17 11:41:31;;;;;;;0.10;0.10;;;;;;;13.25;44.45;103244.88;5085087;28;20051;-79
2022/03/17 11:49:25;;;;;;;0.10;0.10;;;;;;;13.59;44.08;103238.06;5134738;27;1195608;-81